sensor_id;sensor_type;location;lat;lon;timestamp;pressure;altitude;pressure_sealevel;temperature;humidity
61628;BME280;55193;52.102;5.242;2022-11-06T00:02:57;101319.0;;;11.8;90.08
61628;BME280;55193;52.102;5.242;2022-11-06T00:04:35;101321.0;;;11.78;90.24
61628;BME280;55193;52.102;5.242;2022-11-06T00:07:15;101321.0;;;11.82;90.38
61628;BME280;55193;52.102;5.242;2022-11-06T00:08:52;101314.0;;;11.78;90.39
61628;BME280;55193;52.102;5.242;2022-11-06T00:10:29;101313.0;;;11.8;90.13
61628;BME280;55193;52.102;5.242;2022-11-06T00:12:06;101319.0;;;11.84;90.14
61628;BME280;55193;52.102;5.242;2022-11-06T00:15:20;101323.0;;;11.84;90.35
61628;BME280;55193;52.102;5.242;2022-11-06T00:16:57;101319.0;;;11.8;90.16
61628;BME280;55193;52.102;5.242;2022-11-06T00:18:33;101324.0;;;11.81;90.52
61628;BME280;55193;52.102;5.242;2022-11-06T00:21:48;101315.0;;;11.86;90.52
61628;BME280;55193;52.102;5.242;2022-11-06T00:23:25;101313.0;;;11.78;90.24
61628;BME280;55193;52.102;5.242;2022-11-06T00:25:03;101311.0;;;11.84;90.28
61628;BME280;55193;52.102;5.242;2022-11-06T00:26:41;101315.0;;;11.86;90.25
61628;BME280;55193;52.102;5.242;2022-11-06T00:29:53;101313.0;;;11.88;90.37
61628;BME280;55193;52.102;5.242;2022-11-06T00:31:34;101314.0;;;11.86;90.49
61628;BME280;55193;52.102;5.242;2022-11-06T00:33:11;101310.0;;;11.89;90.3
61628;BME280;55193;52.102;5.242;2022-11-06T00:36:25;101314.0;;;11.91;90.26
61628;BME280;55193;52.102;5.242;2022-11-06T00:38:02;101305.0;;;11.85;90.31
61628;BME280;55193;52.102;5.242;2022-11-06T00:39:38;101305.0;;;11.83;90.58
61628;BME280;55193;52.102;5.242;2022-11-06T00:41:16;101301.0;;;11.83;90.76
61628;BME280;55193;52.102;5.242;2022-11-06T00:44:32;101300.0;;;11.81;90.68
61628;BME280;55193;52.102;5.242;2022-11-06T00:46:09;101305.0;;;11.83;90.86
61628;BME280;55193;52.102;5.242;2022-11-06T00:47:47;101297.0;;;11.84;90.79
61628;BME280;55193;52.102;5.242;2022-11-06T00:51:03;101292.0;;;11.82;90.98
61628;BME280;55193;52.102;5.242;2022-11-06T00:52:40;101288.0;;;11.81;91.02
61628;BME280;55193;52.102;5.242;2022-11-06T00:54:18;101289.0;;;11.82;91.04
61628;BME280;55193;52.102;5.242;2022-11-06T00:56:02;101286.0;;;11.86;90.86
61628;BME280;55193;52.102;5.242;2022-11-06T00:59:16;101286.0;;;11.89;90.64
61628;BME280;55193;52.102;5.242;2022-11-06T01:00:52;101287.0;;;11.9;90.52
61628;BME280;55193;52.102;5.242;2022-11-06T01:02:28;101289.0;;;11.89;90.7
61628;BME280;55193;52.102;5.242;2022-11-06T01:05:46;101290.0;;;11.92;90.59
61628;BME280;55193;52.102;5.242;2022-11-06T01:07:24;101299.0;;;11.94;90.4
61628;BME280;55193;52.102;5.242;2022-11-06T01:09:01;101293.0;;;11.92;90.62
61628;BME280;55193;52.102;5.242;2022-11-06T01:10:39;101291.0;;;11.88;90.98
61628;BME280;55193;52.102;5.242;2022-11-06T01:13:56;101287.0;;;11.95;90.48
61628;BME280;55193;52.102;5.242;2022-11-06T01:15:35;101283.0;;;11.9;90.66
61628;BME280;55193;52.102;5.242;2022-11-06T01:17:11;101280.0;;;11.94;90.45
61628;BME280;55193;52.102;5.242;2022-11-06T01:20:25;101273.0;;;11.91;90.71
61628;BME280;55193;52.102;5.242;2022-11-06T01:22:02;101276.0;;;11.91;90.68
61628;BME280;55193;52.102;5.242;2022-11-06T01:23:39;101288.0;;;11.9;90.53
61628;BME280;55193;52.102;5.242;2022-11-06T01:25:16;101277.0;;;11.88;90.75
61628;BME280;55193;52.102;5.242;2022-11-06T01:28:29;101277.0;;;11.89;90.91
61628;BME280;55193;52.102;5.242;2022-11-06T01:30:07;101275.0;;;11.87;91.01
61628;BME280;55193;52.102;5.242;2022-11-06T01:31:45;101276.0;;;11.86;91.0
61628;BME280;55193;52.102;5.242;2022-11-06T01:34:59;101268.0;;;11.89;90.89
61628;BME280;55193;52.102;5.242;2022-11-06T01:36:35;101271.0;;;11.91;90.99
61628;BME280;55193;52.102;5.242;2022-11-06T01:38:12;101274.0;;;11.91;90.82
61628;BME280;55193;52.102;5.242;2022-11-06T01:41:28;101278.0;;;11.87;90.87
61628;BME280;55193;52.102;5.242;2022-11-06T01:43:11;101281.0;;;11.93;90.72
61628;BME280;55193;52.102;5.242;2022-11-06T01:45:19;101284.0;;;11.94;91.16
61628;BME280;55193;52.102;5.242;2022-11-06T01:47:30;101281.0;;;11.93;90.83
61628;BME280;55193;52.102;5.242;2022-11-06T01:49:10;101277.0;;;11.96;90.94
61628;BME280;55193;52.102;5.242;2022-11-06T01:50:50;101271.0;;;11.98;90.85
61628;BME280;55193;52.102;5.242;2022-11-06T01:52:32;101277.0;;;11.9;91.17
61628;BME280;55193;52.102;5.242;2022-11-06T01:55:50;101270.0;;;11.91;91.24
61628;BME280;55193;52.102;5.242;2022-11-06T01:57:28;101276.0;;;11.85;91.39
61628;BME280;55193;52.102;5.242;2022-11-06T01:59:06;101268.0;;;11.94;91.01
61628;BME280;55193;52.102;5.242;2022-11-06T02:02:22;101266.0;;;11.97;91.1
61628;BME280;55193;52.102;5.242;2022-11-06T02:04:04;101264.0;;;11.91;90.7
61628;BME280;55193;52.102;5.242;2022-11-06T02:05:45;101255.0;;;11.97;90.95
61628;BME280;55193;52.102;5.242;2022-11-06T02:07:22;101251.0;;;11.96;91.13
61628;BME280;55193;52.102;5.242;2022-11-06T02:10:37;101248.0;;;11.96;90.93
61628;BME280;55193;52.102;5.242;2022-11-06T02:12:19;101249.0;;;11.97;90.85
61628;BME280;55193;52.102;5.242;2022-11-06T02:14:12;101250.0;;;11.95;90.89
61628;BME280;55193;52.102;5.242;2022-11-06T02:16:00;101247.0;;;12.04;90.62
61628;BME280;55193;52.102;5.242;2022-11-06T02:18:04;101240.0;;;12.0;90.83
61628;BME280;55193;52.102;5.242;2022-11-06T02:21:45;101237.0;;;11.98;90.96
61628;BME280;55193;52.102;5.242;2022-11-06T02:24:04;101242.0;;;12.0;90.8
61628;BME280;55193;52.102;5.242;2022-11-06T02:27:43;101235.0;;;12.04;90.61
61628;BME280;55193;52.102;5.242;2022-11-06T02:29:25;101242.0;;;12.08;90.32
61628;BME280;55193;52.102;5.242;2022-11-06T02:31:11;101239.0;;;12.0;90.6
61628;BME280;55193;52.102;5.242;2022-11-06T02:32:53;101238.0;;;11.97;91.06
61628;BME280;55193;52.102;5.242;2022-11-06T02:34:34;101228.0;;;12.0;90.76
61628;BME280;55193;52.102;5.242;2022-11-06T02:37:57;101222.0;;;11.96;90.88
61628;BME280;55193;52.102;5.242;2022-11-06T02:39:38;101220.0;;;12.01;90.87
61628;BME280;55193;52.102;5.242;2022-11-06T02:41:20;101223.0;;;12.01;90.54
61628;BME280;55193;52.102;5.242;2022-11-06T02:43:02;101218.0;;;11.95;91.01
61628;BME280;55193;52.102;5.242;2022-11-06T02:46:21;101219.0;;;11.99;90.76
61628;BME280;55193;52.102;5.242;2022-11-06T02:48:03;101210.0;;;11.94;90.77
61628;BME280;55193;52.102;5.242;2022-11-06T02:49:43;101212.0;;;11.98;90.86
61628;BME280;55193;52.102;5.242;2022-11-06T02:51:24;101219.0;;;11.91;90.87
61628;BME280;55193;52.102;5.242;2022-11-06T02:53:05;101217.0;;;11.99;90.97
61628;BME280;55193;52.102;5.242;2022-11-06T02:56:28;101214.0;;;11.94;91.01
61628;BME280;55193;52.102;5.242;2022-11-06T02:58:11;101221.0;;;11.93;91.06
61628;BME280;55193;52.102;5.242;2022-11-06T02:59:53;101220.0;;;11.98;90.7
61628;BME280;55193;52.102;5.242;2022-11-06T03:01:37;101221.0;;;12.02;90.7
61628;BME280;55193;52.102;5.242;2022-11-06T03:05:04;101219.0;;;12.03;90.54
61628;BME280;55193;52.102;5.242;2022-11-06T03:06:46;101215.0;;;12.0;90.53
61628;BME280;55193;52.102;5.242;2022-11-06T03:08:30;101212.0;;;12.02;90.73
61628;BME280;55193;52.102;5.242;2022-11-06T03:10:11;101208.0;;;12.02;90.62
61628;BME280;55193;52.102;5.242;2022-11-06T03:13:43;101205.0;;;12.05;90.56
61628;BME280;55193;52.102;5.242;2022-11-06T03:15:26;101201.0;;;12.03;90.49
61628;BME280;55193;52.102;5.242;2022-11-06T03:17:10;101201.0;;;12.03;90.66
61628;BME280;55193;52.102;5.242;2022-11-06T03:18:58;101201.0;;;12.01;90.71
61628;BME280;55193;52.102;5.242;2022-11-06T03:20:42;101210.0;;;12.03;90.7
61628;BME280;55193;52.102;5.242;2022-11-06T03:22:26;101202.0;;;12.05;90.81
61628;BME280;55193;52.102;5.242;2022-11-06T03:25:53;101208.0;;;12.05;90.82
61628;BME280;55193;52.102;5.242;2022-11-06T03:27:37;101209.0;;;12.02;90.77
61628;BME280;55193;52.102;5.242;2022-11-06T03:29:24;101214.0;;;12.07;90.85
61628;BME280;55193;52.102;5.242;2022-11-06T03:31:06;101210.0;;;11.98;91.05
61628;BME280;55193;52.102;5.242;2022-11-06T03:34:28;101208.0;;;11.98;91.07
61628;BME280;55193;52.102;5.242;2022-11-06T03:36:11;101199.0;;;12.01;91.07
61628;BME280;55193;52.102;5.242;2022-11-06T03:37:55;101196.0;;;12.02;90.89
61628;BME280;55193;52.102;5.242;2022-11-06T03:39:37;101192.0;;;11.98;90.92
61628;BME280;55193;52.102;5.242;2022-11-06T03:41:21;101186.0;;;12.04;90.91
61628;BME280;55193;52.102;5.242;2022-11-06T03:44:45;101187.0;;;12.02;91.24
61628;BME280;55193;52.102;5.242;2022-11-06T03:46:25;101185.0;;;12.02;91.34
61628;BME280;55193;52.102;5.242;2022-11-06T03:48:08;101187.0;;;12.0;91.58
61628;BME280;55193;52.102;5.242;2022-11-06T03:49:51;101182.0;;;12.06;91.12
61628;BME280;55193;52.102;5.242;2022-11-06T03:53:18;101182.0;;;11.97;91.59
61628;BME280;55193;52.102;5.242;2022-11-06T03:55:00;101176.0;;;12.03;91.39
61628;BME280;55193;52.102;5.242;2022-11-06T03:56:42;101174.0;;;12.1;91.13
61628;BME280;55193;52.102;5.242;2022-11-06T03:58:23;101168.0;;;12.1;90.97
61628;BME280;55193;52.102;5.242;2022-11-06T04:00:05;101167.0;;;12.11;91.17
61628;BME280;55193;52.102;5.242;2022-11-06T04:03:25;101164.0;;;12.13;90.9
61628;BME280;55193;52.102;5.242;2022-11-06T04:05:09;101163.0;;;12.13;91.05
61628;BME280;55193;52.102;5.242;2022-11-06T04:06:51;101163.0;;;12.16;90.9
61628;BME280;55193;52.102;5.242;2022-11-06T04:15:24;101151.0;;;12.09;91.12
61628;BME280;55193;52.102;5.242;2022-11-06T04:17:04;101146.0;;;12.1;91.26
61628;BME280;55193;52.102;5.242;2022-11-06T04:21:27;101152.0;;;12.12;91.36
61628;BME280;55193;52.102;5.242;2022-11-06T04:23:11;101156.0;;;12.14;91.36
61628;BME280;55193;52.102;5.242;2022-11-06T04:28:32;101157.0;;;12.23;90.92
61628;BME280;55193;52.102;5.242;2022-11-06T04:30:12;101153.0;;;12.24;91.15
61628;BME280;55193;52.102;5.242;2022-11-06T04:31:54;101150.0;;;12.28;91.03
61628;BME280;55193;52.102;5.242;2022-11-06T04:33:44;101143.0;;;12.23;90.82
61628;BME280;55193;52.102;5.242;2022-11-06T04:37:16;101142.0;;;12.27;90.86
61628;BME280;55193;52.102;5.242;2022-11-06T04:39:02;101141.0;;;12.22;91.12
61628;BME280;55193;52.102;5.242;2022-11-06T04:40:49;101139.0;;;12.23;91.05
61628;BME280;55193;52.102;5.242;2022-11-06T04:42:34;101139.0;;;12.28;90.95
61628;BME280;55193;52.102;5.242;2022-11-06T04:44:18;101139.0;;;12.29;90.83
61628;BME280;55193;52.102;5.242;2022-11-06T04:47:41;101128.0;;;12.27;90.84
61628;BME280;55193;52.102;5.242;2022-11-06T04:49:21;101125.0;;;12.34;90.87
61628;BME280;55193;52.102;5.242;2022-11-06T04:51:01;101126.0;;;12.35;90.75
61628;BME280;55193;52.102;5.242;2022-11-06T04:52:41;101127.0;;;12.33;90.88
61628;BME280;55193;52.102;5.242;2022-11-06T04:56:01;101123.0;;;12.34;90.7
61628;BME280;55193;52.102;5.242;2022-11-06T04:57:41;101121.0;;;12.37;90.4
61628;BME280;55193;52.102;5.242;2022-11-06T04:59:17;101124.0;;;12.36;90.37
61628;BME280;55193;52.102;5.242;2022-11-06T05:00:54;101121.0;;;12.39;90.45
61628;BME280;55193;52.102;5.242;2022-11-06T05:04:10;101113.0;;;12.45;89.94
61628;BME280;55193;52.102;5.242;2022-11-06T05:05:46;101110.0;;;12.4;90.02
61628;BME280;55193;52.102;5.242;2022-11-06T05:07:23;101110.0;;;12.4;90.21
61628;BME280;55193;52.102;5.242;2022-11-06T05:10:38;101111.0;;;12.43;90.08
61628;BME280;55193;52.102;5.242;2022-11-06T05:12:14;101110.0;;;12.4;90.07
61628;BME280;55193;52.102;5.242;2022-11-06T05:13:50;101106.0;;;12.38;90.19
61628;BME280;55193;52.102;5.242;2022-11-06T05:15:27;101108.0;;;12.41;89.97
61628;BME280;55193;52.102;5.242;2022-11-06T05:18:39;101111.0;;;12.39;90.12
61628;BME280;55193;52.102;5.242;2022-11-06T05:20:15;101118.0;;;12.38;89.95
61628;BME280;55193;52.102;5.242;2022-11-06T05:23:09;101111.0;;;12.35;90.12
61628;BME280;55193;52.102;5.242;2022-11-06T05:24:46;101105.0;;;12.33;90.09
61628;BME280;55193;52.102;5.242;2022-11-06T05:26:23;101095.0;;;12.33;90.0
61628;BME280;55193;52.102;5.242;2022-11-06T05:28:01;101097.0;;;12.35;89.98
61628;BME280;55193;52.102;5.242;2022-11-06T05:31:14;101098.0;;;12.35;89.91
61628;BME280;55193;52.102;5.242;2022-11-06T05:32:51;101096.0;;;12.39;89.78
61628;BME280;55193;52.102;5.242;2022-11-06T05:34:27;101094.0;;;12.35;89.78
61628;BME280;55193;52.102;5.242;2022-11-06T05:37:42;101099.0;;;12.34;89.84
61628;BME280;55193;52.102;5.242;2022-11-06T05:39:19;101094.0;;;12.31;89.99
61628;BME280;55193;52.102;5.242;2022-11-06T05:40:55;101091.0;;;12.32;90.08
61628;BME280;55193;52.102;5.242;2022-11-06T05:42:32;101090.0;;;12.28;90.23
61628;BME280;55193;52.102;5.242;2022-11-06T05:45:44;101086.0;;;12.27;90.23
61628;BME280;55193;52.102;5.242;2022-11-06T05:47:20;101088.0;;;12.25;90.35
61628;BME280;55193;52.102;5.242;2022-11-06T05:48:57;101090.0;;;12.27;90.07
61628;BME280;55193;52.102;5.242;2022-11-06T05:52:10;101090.0;;;12.28;90.23
61628;BME280;55193;52.102;5.242;2022-11-06T05:53:46;101086.0;;;12.27;90.08
61628;BME280;55193;52.102;5.242;2022-11-06T05:55:23;101085.0;;;12.25;90.14
61628;BME280;55193;52.102;5.242;2022-11-06T05:58:35;101083.0;;;12.19;90.4
61628;BME280;55193;52.102;5.242;2022-11-06T06:00:14;101081.0;;;12.2;90.46
61628;BME280;55193;52.102;5.242;2022-11-06T06:01:51;101082.0;;;12.17;90.64
61628;BME280;55193;52.102;5.242;2022-11-06T06:03:28;101074.0;;;12.14;90.85
61628;BME280;55193;52.102;5.242;2022-11-06T06:06:45;101071.0;;;12.13;90.81
61628;BME280;55193;52.102;5.242;2022-11-06T06:08:22;101065.0;;;12.18;90.53
61628;BME280;55193;52.102;5.242;2022-11-06T06:09:58;101066.0;;;12.13;90.74
61628;BME280;55193;52.102;5.242;2022-11-06T06:13:12;101059.0;;;12.12;90.72
61628;BME280;55193;52.102;5.242;2022-11-06T06:14:49;101061.0;;;12.1;90.73
61628;BME280;55193;52.102;5.242;2022-11-06T06:16:25;101053.0;;;12.11;90.8
61628;BME280;55193;52.102;5.242;2022-11-06T06:19:40;101044.0;;;12.08;91.24
61628;BME280;55193;52.102;5.242;2022-11-06T06:21:18;101040.0;;;12.05;91.33
61628;BME280;55193;52.102;5.242;2022-11-06T06:22:54;101035.0;;;12.05;91.89
61628;BME280;55193;52.102;5.242;2022-11-06T06:24:32;101035.0;;;12.05;92.18
61628;BME280;55193;52.102;5.242;2022-11-06T06:27:46;101042.0;;;12.09;92.16
61628;BME280;55193;52.102;5.242;2022-11-06T06:29:22;101052.0;;;12.08;92.18
61628;BME280;55193;52.102;5.242;2022-11-06T06:30:58;101048.0;;;12.02;92.24
61628;BME280;55193;52.102;5.242;2022-11-06T06:34:14;101049.0;;;12.06;92.31
61628;BME280;55193;52.102;5.242;2022-11-06T06:35:51;101048.0;;;12.1;92.19
61628;BME280;55193;52.102;5.242;2022-11-06T06:37:27;101042.0;;;12.09;92.23
61628;BME280;55193;52.102;5.242;2022-11-06T06:39:03;101040.0;;;12.06;92.02
61628;BME280;55193;52.102;5.242;2022-11-06T06:42:17;101046.0;;;12.04;92.15
61628;BME280;55193;52.102;5.242;2022-11-06T06:43:54;101048.0;;;12.06;92.25
61628;BME280;55193;52.102;5.242;2022-11-06T06:45:31;101051.0;;;12.0;92.46
61628;BME280;55193;52.102;5.242;2022-11-06T06:48:44;101053.0;;;11.98;93.05
61628;BME280;55193;52.102;5.242;2022-11-06T06:50:20;101055.0;;;12.07;92.8
61628;BME280;55193;52.102;5.242;2022-11-06T06:51:57;101056.0;;;12.05;92.77
61628;BME280;55193;52.102;5.242;2022-11-06T06:55:11;101056.0;;;12.06;93.21
61628;BME280;55193;52.102;5.242;2022-11-06T06:56:48;101051.0;;;12.06;93.46
61628;BME280;55193;52.102;5.242;2022-11-06T06:58:24;101047.0;;;12.07;93.54
61628;BME280;55193;52.102;5.242;2022-11-06T07:00:01;101043.0;;;12.04;93.89
61628;BME280;55193;52.102;5.242;2022-11-06T07:03:15;101036.0;;;12.03;94.17
61628;BME280;55193;52.102;5.242;2022-11-06T07:04:52;101032.0;;;12.03;94.11
61628;BME280;55193;52.102;5.242;2022-11-06T07:06:28;101031.0;;;12.06;93.98
61628;BME280;55193;52.102;5.242;2022-11-06T07:09:41;101039.0;;;12.09;93.68
61628;BME280;55193;52.102;5.242;2022-11-06T07:11:17;101037.0;;;12.08;93.83
61628;BME280;55193;52.102;5.242;2022-11-06T07:12:53;101032.0;;;12.06;93.89
61628;BME280;55193;52.102;5.242;2022-11-06T07:16:07;101032.0;;;12.11;93.51
61628;BME280;55193;52.102;5.242;2022-11-06T07:17:45;101030.0;;;12.1;93.53
61628;BME280;55193;52.102;5.242;2022-11-06T07:19:22;101024.0;;;12.1;93.55
61628;BME280;55193;52.102;5.242;2022-11-06T07:20:58;101023.0;;;12.1;93.81
61628;BME280;55193;52.102;5.242;2022-11-06T07:24:11;101022.0;;;12.11;93.36
61628;BME280;55193;52.102;5.242;2022-11-06T07:25:51;101025.0;;;12.16;92.95
61628;BME280;55193;52.102;5.242;2022-11-06T07:27:28;101028.0;;;12.13;93.26
61628;BME280;55193;52.102;5.242;2022-11-06T07:30:41;101018.0;;;12.14;93.3
61628;BME280;55193;52.102;5.242;2022-11-06T07:32:18;101019.0;;;12.18;93.0
61628;BME280;55193;52.102;5.242;2022-11-06T07:33:54;101020.0;;;12.21;93.02
61628;BME280;55193;52.102;5.242;2022-11-06T07:35:32;101018.0;;;12.2;93.15
61628;BME280;55193;52.102;5.242;2022-11-06T07:38:45;101023.0;;;12.22;92.98
61628;BME280;55193;52.102;5.242;2022-11-06T07:40:22;101020.0;;;12.24;92.87
61628;BME280;55193;52.102;5.242;2022-11-06T07:41:59;101025.0;;;12.25;92.85
61628;BME280;55193;52.102;5.242;2022-11-06T07:45:12;101030.0;;;12.19;92.71
61628;BME280;55193;52.102;5.242;2022-11-06T07:46:49;101023.0;;;12.22;92.75
61628;BME280;55193;52.102;5.242;2022-11-06T07:48:27;101028.0;;;12.21;92.96
61628;BME280;55193;52.102;5.242;2022-11-06T07:51:42;101030.0;;;12.2;92.98
61628;BME280;55193;52.102;5.242;2022-11-06T07:53:19;101031.0;;;12.25;93.08
61628;BME280;55193;52.102;5.242;2022-11-06T07:54:56;101025.0;;;12.28;92.89
61628;BME280;55193;52.102;5.242;2022-11-06T07:56:32;101027.0;;;12.34;92.69
61628;BME280;55193;52.102;5.242;2022-11-06T07:59:45;101021.0;;;12.36;92.58
61628;BME280;55193;52.102;5.242;2022-11-06T08:01:22;101022.0;;;12.41;92.19
61628;BME280;55193;52.102;5.242;2022-11-06T08:02:58;101013.0;;;12.45;92.27
61628;BME280;55193;52.102;5.242;2022-11-06T08:06:11;101014.0;;;12.51;92.05
61628;BME280;55193;52.102;5.242;2022-11-06T08:07:48;101007.0;;;12.52;91.66
61628;BME280;55193;52.102;5.242;2022-11-06T08:09:31;101011.0;;;12.54;91.8
61628;BME280;55193;52.102;5.242;2022-11-06T08:11:09;101006.0;;;12.62;91.44
61628;BME280;55193;52.102;5.242;2022-11-06T08:14:24;101008.0;;;12.66;91.29
61628;BME280;55193;52.102;5.242;2022-11-06T08:16:03;101008.0;;;12.75;90.85
61628;BME280;55193;52.102;5.242;2022-11-06T08:17:41;101005.0;;;12.8;90.48
61628;BME280;55193;52.102;5.242;2022-11-06T08:20:54;101006.0;;;12.89;89.98
61628;BME280;55193;52.102;5.242;2022-11-06T08:22:32;101005.0;;;12.94;89.79
61628;BME280;55193;52.102;5.242;2022-11-06T08:24:08;100992.0;;;13.05;89.54
61628;BME280;55193;52.102;5.242;2022-11-06T08:25:45;100990.0;;;13.16;88.83
61628;BME280;55193;52.102;5.242;2022-11-06T08:28:58;100989.0;;;13.33;88.55
61628;BME280;55193;52.102;5.242;2022-11-06T08:30:35;100984.0;;;13.46;87.62
61628;BME280;55193;52.102;5.242;2022-11-06T08:32:12;100980.0;;;13.47;87.06
61628;BME280;55193;52.102;5.242;2022-11-06T08:35:26;100981.0;;;13.53;86.75
61628;BME280;55193;52.102;5.242;2022-11-06T08:37:03;100980.0;;;13.51;87.06
61628;BME280;55193;52.102;5.242;2022-11-06T08:38:39;100977.0;;;13.56;86.55
61628;BME280;55193;52.102;5.242;2022-11-06T08:41:52;100968.0;;;13.52;86.54
61628;BME280;55193;52.102;5.242;2022-11-06T08:43:29;100967.0;;;13.57;86.62
61628;BME280;55193;52.102;5.242;2022-11-06T08:45:06;100972.0;;;13.59;86.45
61628;BME280;55193;52.102;5.242;2022-11-06T08:46:43;100962.0;;;13.56;86.54
61628;BME280;55193;52.102;5.242;2022-11-06T08:49:56;100964.0;;;13.5;86.52
61628;BME280;55193;52.102;5.242;2022-11-06T08:51:32;100955.0;;;13.57;86.49
61628;BME280;55193;52.102;5.242;2022-11-06T08:53:10;100950.0;;;13.68;86.46
61628;BME280;55193;52.102;5.242;2022-11-06T08:56:23;100947.0;;;13.71;85.93
61628;BME280;55193;52.102;5.242;2022-11-06T08:58:00;100951.0;;;13.72;85.74
61628;BME280;55193;52.102;5.242;2022-11-06T08:59:36;100948.0;;;13.75;85.58
61628;BME280;55193;52.102;5.242;2022-11-06T09:02:56;100948.0;;;13.82;85.56
61628;BME280;55193;52.102;5.242;2022-11-06T09:04:33;100951.0;;;13.79;84.83
61628;BME280;55193;52.102;5.242;2022-11-06T09:06:09;100941.0;;;13.78;85.32
61628;BME280;55193;52.102;5.242;2022-11-06T09:07:45;100940.0;;;13.78;85.54
61628;BME280;55193;52.102;5.242;2022-11-06T09:10:58;100938.0;;;13.81;85.61
61628;BME280;55193;52.102;5.242;2022-11-06T09:12:34;100924.0;;;13.83;85.58
61628;BME280;55193;52.102;5.242;2022-11-06T09:14:10;100931.0;;;13.9;85.23
61628;BME280;55193;52.102;5.242;2022-11-06T09:17:23;100921.0;;;13.97;85.38
61628;BME280;55193;52.102;5.242;2022-11-06T09:18:59;100920.0;;;13.96;85.08
61628;BME280;55193;52.102;5.242;2022-11-06T09:20:36;100918.0;;;14.03;84.96
61628;BME280;55193;52.102;5.242;2022-11-06T09:22:13;100920.0;;;14.05;84.64
61628;BME280;55193;52.102;5.242;2022-11-06T09:25:26;100915.0;;;14.07;84.52
61628;BME280;55193;52.102;5.242;2022-11-06T09:27:03;100915.0;;;14.08;84.26
61628;BME280;55193;52.102;5.242;2022-11-06T09:28:41;100910.0;;;14.13;84.16
61628;BME280;55193;52.102;5.242;2022-11-06T09:31:57;100913.0;;;14.15;84.3
61628;BME280;55193;52.102;5.242;2022-11-06T09:33:33;100908.0;;;14.17;84.81
61628;BME280;55193;52.102;5.242;2022-11-06T09:35:10;100905.0;;;14.18;83.8
61628;BME280;55193;52.102;5.242;2022-11-06T09:38:23;100910.0;;;14.16;83.93
61628;BME280;55193;52.102;5.242;2022-11-06T09:40:00;100912.0;;;14.2;84.27
61628;BME280;55193;52.102;5.242;2022-11-06T09:41:47;100914.0;;;14.15;84.02
61628;BME280;55193;52.102;5.242;2022-11-06T09:43:33;100912.0;;;14.17;83.67
61628;BME280;55193;52.102;5.242;2022-11-06T09:45:24;100911.0;;;14.2;83.96
61628;BME280;55193;52.102;5.242;2022-11-06T09:48:48;100910.0;;;14.2;84.18
61628;BME280;55193;52.102;5.242;2022-11-06T09:50:31;100910.0;;;14.21;84.06
61628;BME280;55193;52.102;5.242;2022-11-06T09:52:12;100913.0;;;14.23;83.63
61628;BME280;55193;52.102;5.242;2022-11-06T09:53:55;100912.0;;;14.17;83.79
61628;BME280;55193;52.102;5.242;2022-11-06T09:57:18;100916.0;;;14.1;83.52
61628;BME280;55193;52.102;5.242;2022-11-06T09:58:59;100911.0;;;14.07;83.83
61628;BME280;55193;52.102;5.242;2022-11-06T10:00:39;100901.0;;;14.06;84.02
61628;BME280;55193;52.102;5.242;2022-11-06T10:02:24;100908.0;;;14.01;83.98
61628;BME280;55193;52.102;5.242;2022-11-06T10:04:05;100907.0;;;14.08;84.11
61628;BME280;55193;52.102;5.242;2022-11-06T10:07:31;100910.0;;;14.1;83.7
61628;BME280;55193;52.102;5.242;2022-11-06T10:09:10;100906.0;;;14.09;83.83
61628;BME280;55193;52.102;5.242;2022-11-06T10:10:53;100899.0;;;14.1;83.71
61628;BME280;55193;52.102;5.242;2022-11-06T10:12:40;100900.0;;;14.1;83.82
61628;BME280;55193;52.102;5.242;2022-11-06T10:14:48;100898.0;;;14.13;84.08
61628;BME280;55193;52.102;5.242;2022-11-06T10:16:52;100899.0;;;14.13;84.01
61628;BME280;55193;52.102;5.242;2022-11-06T10:20:30;100889.0;;;14.15;83.72
61628;BME280;55193;52.102;5.242;2022-11-06T10:22:13;100887.0;;;14.14;83.49
61628;BME280;55193;52.102;5.242;2022-11-06T10:23:55;100880.0;;;14.16;83.06
61628;BME280;55193;52.102;5.242;2022-11-06T10:25:43;100886.0;;;14.18;83.43
61628;BME280;55193;52.102;5.242;2022-11-06T10:27:33;100887.0;;;14.17;83.22
61628;BME280;55193;52.102;5.242;2022-11-06T10:29:27;100871.0;;;14.15;82.76
61628;BME280;55193;52.102;5.242;2022-11-06T10:31:42;100875.0;;;14.19;82.84
61628;BME280;55193;52.102;5.242;2022-11-06T10:33:33;100882.0;;;14.17;83.35
61628;BME280;55193;52.102;5.242;2022-11-06T10:37:04;100877.0;;;14.15;83.24
61628;BME280;55193;52.102;5.242;2022-11-06T10:38:44;100868.0;;;14.14;83.12
61628;BME280;55193;52.102;5.242;2022-11-06T10:40:25;100869.0;;;14.17;83.5
61628;BME280;55193;52.102;5.242;2022-11-06T10:42:11;100868.0;;;14.16;83.6
61628;BME280;55193;52.102;5.242;2022-11-06T10:43:54;100858.0;;;14.16;84.51
61628;BME280;55193;52.102;5.242;2022-11-06T10:47:19;100863.0;;;14.15;84.76
61628;BME280;55193;52.102;5.242;2022-11-06T10:48:59;100861.0;;;14.14;84.16
61628;BME280;55193;52.102;5.242;2022-11-06T10:50:51;100859.0;;;14.15;84.16
61628;BME280;55193;52.102;5.242;2022-11-06T10:52:40;100847.0;;;14.13;83.79
61628;BME280;55193;52.102;5.242;2022-11-06T10:54:40;100845.0;;;14.14;83.45
61628;BME280;55193;52.102;5.242;2022-11-06T10:56:38;100843.0;;;14.2;82.97
61628;BME280;55193;52.102;5.242;2022-11-06T10:59:58;100835.0;;;14.23;82.85
61628;BME280;55193;52.102;5.242;2022-11-06T11:01:37;100837.0;;;14.26;82.9
61628;BME280;55193;52.102;5.242;2022-11-06T11:03:20;100830.0;;;14.23;83.24
61628;BME280;55193;52.102;5.242;2022-11-06T11:04:58;100826.0;;;14.15;83.59
61628;BME280;55193;52.102;5.242;2022-11-06T11:08:32;100824.0;;;14.05;83.96
61628;BME280;55193;52.102;5.242;2022-11-06T11:10:25;100819.0;;;14.08;84.21
61628;BME280;55193;52.102;5.242;2022-11-06T11:12:18;100812.0;;;14.1;84.58
61628;BME280;55193;52.102;5.242;2022-11-06T11:14:14;100807.0;;;14.08;84.63
61628;BME280;55193;52.102;5.242;2022-11-06T11:15:57;100810.0;;;14.13;84.63
61628;BME280;55193;52.102;5.242;2022-11-06T11:17:35;100808.0;;;14.14;84.85
61628;BME280;55193;52.102;5.242;2022-11-06T11:21:21;100805.0;;;14.16;85.23